Time;durP1;ratioP1;P1;durP2;ratioP2;P2;SDS_P1;SDS_P2;PMS_P1;PMS_P2;Temp;Humidity;BMP_temperature;BMP_pressure;BME280_temperature;BME280_humidity;BME280_pressure;Samples;Min_cycle;Max_cycle;Signal;HPM_P1;HPM_P2
2022/08/21 00:00:18;;;;;;;8.00;1.38;;;;;;;;;;4985206;28;20096;-42
2022/08/21 00:02:46;;;;;;;10.05;2.00;;;;;;;;;;4982612;28;20038;-41
2022/08/21 00:05:12;;;;;;;10.50;2.60;;;;;;;;;;4990520;28;20053;-40
2022/08/21 00:07:39;;;;;;;9.68;2.42;;;;;;;;;;4981144;28;20042;-40
2022/08/21 00:10:06;;;;;;;9.88;3.13;;;;;;;;;;4981443;28;20081;-40
2022/08/21 00:12:32;;;;;;;13.88;3.40;;;;;;;;;;4990187;28;20049;-42
2022/08/21 00:15:00;;;;;;;13.45;3.30;;;;;;;;;;4988581;28;20487;-40
2022/08/21 00:17:27;;;;;;;16.77;2.90;;;;;;;;;;4977408;28;20050;-42
2022/08/21 00:19:53;;;;;;;11.07;3.08;;;;;;;;;;4986014;28;20041;-43
2022/08/21 00:22:20;;;;;;;11.82;2.72;;;;;;;;;;4993262;28;20096;-41
2022/08/21 00:24:46;;;;;;;9.40;3.35;;;;;;;;;;4977379;28;20049;-44
2022/08/21 00:27:13;;;;;;;11.25;2.63;;;;;;;;;;4990294;28;20463;-44
2022/08/21 00:29:40;;;;;;;9.50;2.00;;;;;;;;;;4983871;28;20481;-42
2022/08/21 00:32:08;;;;;;;9.98;1.80;;;;;;;;;;4985065;28;20518;-41
2022/08/21 00:34:34;;;;;;;9.40;1.80;;;;;;;;;;4993573;28;20088;-40
2022/08/21 00:37:01;;;;;;;11.80;2.42;;;;;;;;;;4978049;28;20096;-40
2022/08/21 00:39:27;;;;;;;9.95;2.33;;;;;;;;;;4991263;28;20046;-39
2022/08/21 00:41:54;;;;;;;11.40;1.97;;;;;;;;;;4988942;28;20715;-45
2022/08/21 00:44:21;;;;;;;9.50;1.92;;;;;;;;;;4983570;28;20053;-43
2022/08/21 00:46:48;;;;;;;9.25;1.60;;;;;;;;;;4986284;28;20053;-40
2022/08/21 00:49:17;;;;;;;8.90;1.85;;;;;;;;;;4989754;28;20045;-39
2022/08/21 00:51:47;;;;;;;8.73;1.52;;;;;;;;;;4983722;28;20634;-41
2022/08/21 00:54:15;;;;;;;7.67;1.13;;;;;;;;;;5000041;28;20104;-39
2022/08/21 00:56:41;;;;;;;9.75;2.78;;;;;;;;;;4981642;28;20138;-39
2022/08/21 00:59:08;;;;;;;8.85;1.85;;;;;;;;;;5004780;28;20053;-42
2022/08/21 01:01:35;;;;;;;9.25;1.40;;;;;;;;;;4984590;28;20042;-41
2022/08/21 01:04:02;;;;;;;8.20;1.73;;;;;;;;;;4984219;28;20493;-41
2022/08/21 01:06:30;;;;;;;9.20;1.40;;;;;;;;;;4986948;28;21547;-41
2022/08/21 01:08:56;;;;;;;4.85;1.15;;;;;;;;;;4987251;28;20049;-40
2022/08/21 01:11:23;;;;;;;8.38;1.45;;;;;;;;;;4985423;28;20495;-42
2022/08/21 01:13:51;;;;;;;4.40;0.88;;;;;;;;;;4992352;28;20480;-43
2022/08/21 01:16:19;;;;;;;5.03;0.70;;;;;;;;;;4981898;28;20046;-41
2022/08/21 01:18:47;;;;;;;5.53;0.90;;;;;;;;;;4992186;28;20107;-40
2022/08/21 01:21:18;;;;;;;2.88;0.75;;;;;;;;;;4986164;28;20040;-40
2022/08/21 01:23:45;;;;;;;3.33;0.80;;;;;;;;;;4986712;28;20061;-40
2022/08/21 01:26:12;;;;;;;4.20;0.80;;;;;;;;;;4986339;28;21536;-43
2022/08/21 01:28:41;;;;;;;4.32;0.80;;;;;;;;;;4991004;28;20049;-40
2022/08/21 01:31:09;;;;;;;3.80;0.80;;;;;;;;;;4985761;28;21221;-41
2022/08/21 01:33:36;;;;;;;2.38;0.55;;;;;;;;;;4990633;28;20045;-40
2022/08/21 01:36:02;;;;;;;3.00;0.60;;;;;;;;;;4987340;28;20500;-40
2022/08/21 01:38:30;;;;;;;4.90;0.75;;;;;;;;;;4991946;28;20064;-40
2022/08/21 01:40:57;;;;;;;3.53;0.70;;;;;;;;;;4979906;28;20052;-41
2022/08/21 01:43:24;;;;;;;3.23;0.70;;;;;;;;;;4993434;28;20462;-43
2022/08/21 01:45:51;;;;;;;2.70;0.47;;;;;;;;;;4987751;28;20040;-41
2022/08/21 01:48:17;;;;;;;2.53;0.50;;;;;;;;;;4992973;28;20096;-43
2022/08/21 01:50:44;;;;;;;4.82;0.80;;;;;;;;;;4978499;28;20045;-43
2022/08/21 01:53:10;;;;;;;4.03;0.80;;;;;;;;;;4992880;28;20101;-40
2022/08/21 01:55:38;;;;;;;2.40;0.57;;;;;;;;;;4992642;28;20053;-40
2022/08/21 01:58:04;;;;;;;2.50;0.60;;;;;;;;;;4985853;28;20737;-42
2022/08/21 02:00:31;;;;;;;2.40;0.30;;;;;;;;;;4990961;28;20050;-40
2022/08/21 02:02:58;;;;;;;2.72;0.50;;;;;;;;;;4991561;28;20042;-43
2022/08/21 02:05:24;;;;;;;2.50;0.43;;;;;;;;;;4995592;28;20038;-40
2022/08/21 02:07:52;;;;;;;3.00;0.60;;;;;;;;;;4985036;28;20046;-43
2022/08/21 02:10:20;;;;;;;4.07;0.68;;;;;;;;;;4971724;28;20590;-43
2022/08/21 02:12:48;;;;;;;4.53;0.77;;;;;;;;;;4995853;28;20590;-41
2022/08/21 02:15:15;;;;;;;3.60;0.80;;;;;;;;;;4992131;28;20096;-43
2022/08/21 02:17:43;;;;;;;3.58;0.80;;;;;;;;;;4986095;28;20052;-42
2022/08/21 02:20:10;;;;;;;3.13;0.67;;;;;;;;;;4979666;28;20561;-40
2022/08/21 02:22:36;;;;;;;3.00;0.70;;;;;;;;;;4989520;28;20042;-40
2022/08/21 02:25:03;;;;;;;2.90;0.70;;;;;;;;;;4990574;28;20503;-40
2022/08/21 02:27:29;;;;;;;3.17;0.68;;;;;;;;;;4995672;28;20046;-41
2022/08/21 02:29:57;;;;;;;3.28;0.60;;;;;;;;;;4984515;28;20497;-43
2022/08/21 02:32:24;;;;;;;2.57;0.50;;;;;;;;;;4994968;28;20038;-42
2022/08/21 02:34:51;;;;;;;3.05;0.88;;;;;;;;;;4989722;28;20103;-42
2022/08/21 02:37:17;;;;;;;3.90;0.77;;;;;;;;;;4992276;28;20033;-43
2022/08/21 02:39:44;;;;;;;3.40;0.85;;;;;;;;;;4996445;28;20038;-41
2022/08/21 02:42:10;;;;;;;2.72;0.50;;;;;;;;;;4990661;28;20070;-40
2022/08/21 02:44:37;;;;;;;2.93;0.50;;;;;;;;;;4994228;28;20042;-44
2022/08/21 02:47:05;;;;;;;2.83;0.50;;;;;;;;;;4993490;28;20057;-40
2022/08/21 02:49:32;;;;;;;4.07;0.90;;;;;;;;;;5256934;23;21247;-40
2022/08/21 02:51:58;;;;;;;2.90;0.68;;;;;;;;;;4859265;28;20535;-41
2022/08/21 02:54:25;;;;;;;3.90;0.80;;;;;;;;;;4928777;28;20039;-39
2022/08/21 02:56:52;;;;;;;3.17;0.77;;;;;;;;;;4893828;28;20046;-40
2022/08/21 02:59:18;;;;;;;2.65;0.60;;;;;;;;;;4937684;28;20520;-41
2022/08/21 03:01:45;;;;;;;6.38;1.08;;;;;;;;;;4950282;28;20109;-40
2022/08/21 03:04:13;;;;;;;3.53;0.65;;;;;;;;;;4953693;28;20055;-41
2022/08/21 03:06:39;;;;;;;4.32;0.50;;;;;;;;;;4943483;28;20042;-41
2022/08/21 03:09:05;;;;;;;3.43;0.60;;;;;;;;;;4953462;28;20101;-40
2022/08/21 03:11:33;;;;;;;3.20;0.60;;;;;;;;;;4947087;28;20039;-41
2022/08/21 03:14:02;;;;;;;2.75;0.60;;;;;;;;;;4924452;28;20047;-40
2022/08/21 03:16:28;;;;;;;3.28;0.85;;;;;;;;;;4928923;28;20038;-44
2022/08/21 03:18:55;;;;;;;2.80;0.52;;;;;;;;;;4941911;28;20043;-40
2022/08/21 03:21:24;;;;;;;3.63;0.73;;;;;;;;;;4940384;28;20046;-41
2022/08/21 03:23:50;;;;;;;2.88;0.60;;;;;;;;;;4956692;28;20465;-41
2022/08/21 03:26:17;;;;;;;2.67;0.47;;;;;;;;;;4946092;28;20050;-40
2022/08/21 03:28:43;;;;;;;3.65;0.88;;;;;;;;;;4941407;28;20365;-39
2022/08/21 03:31:10;;;;;;;3.00;0.88;;;;;;;;;;4942073;28;20086;-39
2022/08/21 03:33:36;;;;;;;2.93;0.53;;;;;;;;;;4954136;28;20046;-39
2022/08/21 03:36:04;;;;;;;4.28;0.75;;;;;;;;;;4946319;28;20467;-39
2022/08/21 03:38:33;;;;;;;4.68;1.00;;;;;;;;;;4925401;28;20556;-41
2022/08/21 03:41:00;;;;;;;3.83;0.60;;;;;;;;;;4953890;28;20493;-39
2022/08/21 03:43:26;;;;;;;3.03;0.63;;;;;;;;;;4946562;28;20075;-40
2022/08/21 03:45:53;;;;;;;3.30;0.50;;;;;;;;;;4946259;28;20051;-41
2022/08/21 03:48:20;;;;;;;3.17;0.60;;;;;;;;;;4940913;28;20030;-39
2022/08/21 03:50:49;;;;;;;2.92;0.85;;;;;;;;;;4934333;28;20051;-39
2022/08/21 03:53:17;;;;;;;3.38;0.55;;;;;;;;;;4907231;28;20556;-40
2022/08/21 03:55:46;;;;;;;3.08;0.60;;;;;;;;;;4949364;28;20394;-40
2022/08/21 03:58:12;;;;;;;3.50;0.67;;;;;;;;;;4957670;28;20046;-39
2022/08/21 04:00:39;;;;;;;4.70;0.80;;;;;;;;;;4933014;28;20444;-41
2022/08/21 04:03:06;;;;;;;2.65;0.50;;;;;;;;;;4937442;28;20050;-39
2022/08/21 04:05:32;;;;;;;3.55;0.63;;;;;;;;;;4945907;28;20564;-42
2022/08/21 04:08:00;;;;;;;2.28;0.50;;;;;;;;;;4943497;28;20490;-40
2022/08/21 04:10:27;;;;;;;2.30;0.53;;;;;;;;;;4947375;28;20046;-41
2022/08/21 04:12:55;;;;;;;4.20;0.60;;;;;;;;;;4950096;28;20492;-39
2022/08/21 04:15:22;;;;;;;3.08;0.80;;;;;;;;;;4945005;28;20125;-39
2022/08/21 04:17:49;;;;;;;3.78;0.60;;;;;;;;;;4940703;28;20589;-41
2022/08/21 04:20:16;;;;;;;2.70;0.52;;;;;;;;;;4945672;28;20464;-41
2022/08/21 04:22:42;;;;;;;3.20;0.77;;;;;;;;;;4946854;28;20035;-41
2022/08/21 04:25:09;;;;;;;3.63;0.77;;;;;;;;;;4945082;28;20656;-44
2022/08/21 04:27:36;;;;;;;2.70;0.70;;;;;;;;;;4943106;28;20501;-40
2022/08/21 04:30:03;;;;;;;2.67;0.55;;;;;;;;;;4949874;28;20428;-41
2022/08/21 04:32:30;;;;;;;2.63;0.50;;;;;;;;;;4943119;28;20035;-40
2022/08/21 04:35:03;;;;;;;3.47;0.97;;;;;;;;;;4945482;28;20547;-40
2022/08/21 04:37:30;;;;;;;2.63;0.70;;;;;;;;;;4949539;28;20431;-40
2022/08/21 04:39:58;;;;;;;3.15;0.60;;;;;;;;;;4941857;28;20054;-42
2022/08/21 04:42:24;;;;;;;4.18;0.80;;;;;;;;;;4949261;28;20590;-40
2022/08/21 04:44:51;;;;;;;3.45;0.95;;;;;;;;;;4943535;28;20639;-40
2022/08/21 04:47:20;;;;;;;4.77;0.60;;;;;;;;;;4950927;28;20472;-40
2022/08/21 04:49:46;;;;;;;3.05;0.50;;;;;;;;;;4949736;28;20050;-39
2022/08/21 04:52:14;;;;;;;2.80;0.50;;;;;;;;;;4934086;28;20044;-39
2022/08/21 04:54:41;;;;;;;3.92;0.60;;;;;;;;;;4940175;28;20039;-41
2022/08/21 04:57:10;;;;;;;4.43;0.60;;;;;;;;;;4925385;28;20054;-42
2022/08/21 04:59:39;;;;;;;2.70;0.70;;;;;;;;;;4903347;28;20989;-40
2022/08/21 05:02:06;;;;;;;2.65;0.73;;;;;;;;;;4949317;28;20054;-40
2022/08/21 05:04:35;;;;;;;5.68;0.60;;;;;;;;;;4951173;28;20047;-41
2022/08/21 05:07:03;;;;;;;5.18;0.70;;;;;;;;;;4944351;28;20428;-43
2022/08/21 05:09:30;;;;;;;3.42;0.63;;;;;;;;;;4946333;28;20513;-41
2022/08/21 05:11:58;;;;;;;2.50;0.60;;;;;;;;;;4944291;28;20043;-40
2022/08/21 05:14:27;;;;;;;4.30;0.73;;;;;;;;;;4939786;28;20116;-41
2022/08/21 05:16:53;;;;;;;4.00;0.82;;;;;;;;;;4951209;28;20057;-41
2022/08/21 05:19:20;;;;;;;3.67;0.55;;;;;;;;;;4944121;28;20126;-42
2022/08/21 05:21:48;;;;;;;3.90;0.80;;;;;;;;;;4948251;28;20039;-42
2022/08/21 05:24:15;;;;;;;3.57;0.50;;;;;;;;;;4926453;28;20244;-44
2022/08/21 05:26:42;;;;;;;6.05;0.50;;;;;;;;;;4951338;28;20380;-41
2022/08/21 05:29:08;;;;;;;4.07;0.70;;;;;;;;;;4946483;28;20551;-40
2022/08/21 05:31:35;;;;;;;2.92;0.70;;;;;;;;;;4939378;28;20125;-40
2022/08/21 05:34:01;;;;;;;3.67;0.75;;;;;;;;;;4953903;28;20113;-42
2022/08/21 05:36:28;;;;;;;2.73;0.50;;;;;;;;;;4937202;28;20610;-40
2022/08/21 05:38:56;;;;;;;2.88;0.60;;;;;;;;;;4956436;28;20522;-43
2022/08/21 05:41:23;;;;;;;3.00;0.47;;;;;;;;;;4943238;28;20035;-41
2022/08/21 05:43:49;;;;;;;2.95;0.60;;;;;;;;;;4954155;28;20089;-42
2022/08/21 05:46:16;;;;;;;2.47;0.50;;;;;;;;;;4952365;28;20089;-40
2022/08/21 05:48:43;;;;;;;3.80;1.10;;;;;;;;;;4948081;28;20446;-40
2022/08/21 05:51:11;;;;;;;2.70;0.50;;;;;;;;;;4935880;28;20046;-40
2022/08/21 05:53:37;;;;;;;3.08;0.80;;;;;;;;;;4954968;28;20051;-41
2022/08/21 05:56:06;;;;;;;5.05;0.90;;;;;;;;;;4952021;28;20043;-41
2022/08/21 05:58:33;;;;;;;2.67;0.60;;;;;;;;;;4942855;28;20050;-40
2022/08/21 06:01:00;;;;;;;2.00;0.40;;;;;;;;;;4950551;28;20046;-41
2022/08/21 06:03:28;;;;;;;2.85;0.88;;;;;;;;;;4953721;28;20039;-41
2022/08/21 06:05:55;;;;;;;4.45;0.98;;;;;;;;;;4937421;28;20575;-39
2022/08/21 06:08:22;;;;;;;3.08;0.75;;;;;;;;;;4948425;28;20043;-40
2022/08/21 06:10:50;;;;;;;4.97;0.90;;;;;;;;;;4937913;28;20047;-43
2022/08/21 06:13:18;;;;;;;4.03;0.63;;;;;;;;;;4943068;28;20090;-39
2022/08/21 06:15:45;;;;;;;4.60;0.90;;;;;;;;;;4932252;28;20039;-40
2022/08/21 06:18:12;;;;;;;2.88;0.40;;;;;;;;;;4953522;28;20496;-39
2022/08/21 06:20:39;;;;;;;7.20;0.98;;;;;;;;;;4945978;28;20038;-40
2022/08/21 06:23:05;;;;;;;3.53;0.80;;;;;;;;;;4954290;28;20049;-40
2022/08/21 06:25:32;;;;;;;2.70;0.70;;;;;;;;;;4936864;28;20047;-41
2022/08/21 06:28:01;;;;;;;4.75;0.85;;;;;;;;;;4935414;28;20055;-40
2022/08/21 06:30:29;;;;;;;2.88;0.65;;;;;;;;;;4940846;28;20046;-40
2022/08/21 06:32:56;;;;;;;6.25;0.60;;;;;;;;;;4947935;28;20042;-40
2022/08/21 06:35:24;;;;;;;2.67;0.45;;;;;;;;;;4957074;28;20046;-40
2022/08/21 06:37:50;;;;;;;5.00;0.80;;;;;;;;;;4948002;28;20043;-40
2022/08/21 06:40:17;;;;;;;3.42;0.60;;;;;;;;;;4955966;28;20058;-41
2022/08/21 06:42:44;;;;;;;4.90;0.77;;;;;;;;;;4945976;28;20398;-40
2022/08/21 06:45:11;;;;;;;2.80;0.50;;;;;;;;;;4970421;28;20656;-41
2022/08/21 06:47:39;;;;;;;2.10;0.40;;;;;;;;;;4947661;28;20789;-42
2022/08/21 06:50:07;;;;;;;4.50;0.53;;;;;;;;;;4956508;28;20653;-43
2022/08/21 06:52:33;;;;;;;2.85;0.50;;;;;;;;;;4945236;28;20105;-40
2022/08/21 06:55:00;;;;;;;3.33;0.65;;;;;;;;;;4940705;28;20047;-41
2022/08/21 06:57:26;;;;;;;4.22;0.60;;;;;;;;;;4944575;28;20715;-43
2022/08/21 06:59:53;;;;;;;3.33;0.60;;;;;;;;;;4943377;28;20463;-40
2022/08/21 07:02:22;;;;;;;2.63;0.40;;;;;;;;;;4922987;28;20488;-42
2022/08/21 07:04:50;;;;;;;4.22;0.55;;;;;;;;;;4906692;28;20090;-40
2022/08/21 07:07:17;;;;;;;4.80;0.90;;;;;;;;;;4950287;28;20058;-40
2022/08/21 07:09:43;;;;;;;2.80;0.50;;;;;;;;;;4952801;28;20526;-42
2022/08/21 07:12:10;;;;;;;4.30;0.73;;;;;;;;;;4951141;28;20045;-40
2022/08/21 07:14:37;;;;;;;4.80;0.80;;;;;;;;;;4950022;28;20776;-43
2022/08/21 07:17:03;;;;;;;2.53;0.68;;;;;;;;;;4940108;28;20055;-43
2022/08/21 07:19:30;;;;;;;4.03;0.73;;;;;;;;;;4923072;28;20259;-43
2022/08/21 07:21:59;;;;;;;2.58;0.50;;;;;;;;;;4948474;28;20274;-42
2022/08/21 07:24:26;;;;;;;2.35;0.35;;;;;;;;;;4948779;28;20042;-41
2022/08/21 07:26:53;;;;;;;4.30;1.03;;;;;;;;;;4948350;28;20591;-41
2022/08/21 07:29:19;;;;;;;3.45;0.60;;;;;;;;;;4926773;28;20046;-40
2022/08/21 07:31:46;;;;;;;4.65;0.55;;;;;;;;;;4912104;28;20046;-42
2022/08/21 07:34:13;;;;;;;3.33;0.70;;;;;;;;;;4923849;28;20043;-42
2022/08/21 07:36:40;;;;;;;3.70;0.60;;;;;;;;;;4928119;28;20110;-41
2022/08/21 07:39:08;;;;;;;3.23;0.50;;;;;;;;;;4935013;28;20051;-40
2022/08/21 07:41:35;;;;;;;4.03;0.70;;;;;;;;;;4954026;28;20054;-42
2022/08/21 07:44:02;;;;;;;3.15;0.60;;;;;;;;;;4949795;28;20460;-40
2022/08/21 07:46:29;;;;;;;2.10;0.32;;;;;;;;;;4928341;28;20113;-43
2022/08/21 07:48:55;;;;;;;2.90;0.63;;;;;;;;;;4936856;28;20038;-40
2022/08/21 07:51:24;;;;;;;2.97;0.60;;;;;;;;;;4931232;28;20043;-40
2022/08/21 07:53:52;;;;;;;2.88;0.80;;;;;;;;;;4933155;28;20102;-40
2022/08/21 07:56:21;;;;;;;2.17;0.45;;;;;;;;;;4950594;28;20047;-40
2022/08/21 07:58:48;;;;;;;1.95;0.30;;;;;;;;;;4946099;28;20070;-41
2022/08/21 08:01:14;;;;;;;2.42;0.52;;;;;;;;;;4952876;28;20096;-41
2022/08/21 08:03:42;;;;;;;3.10;0.67;;;;;;;;;;4942576;28;20045;-42
2022/08/21 08:06:11;;;;;;;4.30;0.70;;;;;;;;;;4944388;28;20404;-41
2022/08/21 08:08:38;;;;;;;2.88;0.52;;;;;;;;;;4947487;28;20043;-44
2022/08/21 08:11:05;;;;;;;2.65;0.57;;;;;;;;;;4947597;28;20097;-42
2022/08/21 08:13:38;;;;;;;4.03;0.65;;;;;;;;;;4942676;28;20050;-41
2022/08/21 08:16:05;;;;;;;2.97;0.50;;;;;;;;;;4933596;28;20046;-42
2022/08/21 08:18:31;;;;;;;3.97;0.60;;;;;;;;;;4953137;28;20109;-41
2022/08/21 08:20:59;;;;;;;1.75;0.32;;;;;;;;;;4938823;28;20049;-41
2022/08/21 08:23:26;;;;;;;4.13;0.70;;;;;;;;;;4951262;28;20078;-40
2022/08/21 08:25:52;;;;;;;2.88;0.80;;;;;;;;;;4942950;28;20035;-40
2022/08/21 08:28:19;;;;;;;3.60;1.03;;;;;;;;;;4952455;28;20058;-41
2022/08/21 08:30:47;;;;;;;3.80;0.65;;;;;;;;;;4944136;28;20511;-40
2022/08/21 08:33:14;;;;;;;4.15;0.60;;;;;;;;;;4944906;28;20047;-43
2022/08/21 08:35:40;;;;;;;3.17;0.60;;;;;;;;;;4260558;28;10000718;-40
2022/08/21 08:38:07;;;;;;;2.47;0.43;;;;;;;;;;4937628;28;20047;-41
2022/08/21 08:40:38;;;;;;;2.70;0.50;;;;;;;;;;4944260;28;20039;-40
2022/08/21 08:43:05;;;;;;;2.10;0.40;;;;;;;;;;4944891;28;20038;-40
2022/08/21 08:45:33;;;;;;;4.28;0.47;;;;;;;;;;4943964;28;20051;-41
2022/08/21 08:48:02;;;;;;;4.75;0.82;;;;;;;;;;4942948;28;20063;-42
2022/08/21 08:50:32;;;;;;;5.28;0.40;;;;;;;;;;4942455;28;20047;-41
2022/08/21 08:53:01;;;;;;;2.78;0.55;;;;;;;;;;4946164;28;20042;-43
2022/08/21 08:55:32;;;;;;;4.17;0.57;;;;;;;;;;4937763;28;20444;-40
2022/08/21 08:57:59;;;;;;;3.15;0.40;;;;;;;;;;4946927;28;20445;-40
2022/08/21 09:00:26;;;;;;;4.90;0.98;;;;;;;;;;4941314;28;20038;-41
2022/08/21 09:02:53;;;;;;;4.00;0.82;;;;;;;;;;4940508;28;20038;-41
2022/08/21 09:05:23;;;;;;;2.65;0.30;;;;;;;;;;4945388;28;20039;-41
2022/08/21 09:07:56;;;;;;;2.17;0.50;;;;;;;;;;4945253;28;20043;-43
2022/08/21 09:10:26;;;;;;;2.95;0.80;;;;;;;;;;4943448;28;21429;-40
2022/08/21 09:12:57;;;;;;;3.08;0.57;;;;;;;;;;4596371;28;10001068;-41
2022/08/21 09:15:27;;;;;;;4.38;1.00;;;;;;;;;;4933660;28;20342;-42
2022/08/21 09:18:05;;;;;;;3.28;0.80;;;;;;;;;;4936818;28;20034;-41
2022/08/21 09:20:38;;;;;;;3.05;0.70;;;;;;;;;;4943293;28;20050;-42
2022/08/21 09:23:09;;;;;;;4.53;0.80;;;;;;;;;;4940648;28;20043;-41
2022/08/21 09:25:42;;;;;;;2.73;0.50;;;;;;;;;;4945446;28;20061;-42
2022/08/21 09:28:12;;;;;;;2.38;0.40;;;;;;;;;;4953841;28;20133;-41
2022/08/21 09:30:40;;;;;;;3.15;0.52;;;;;;;;;;4931154;28;20042;-42
2022/08/21 09:33:07;;;;;;;2.85;0.68;;;;;;;;;;4948718;28;20099;-41
2022/08/21 09:35:36;;;;;;;3.90;0.60;;;;;;;;;;4940091;28;20585;-41
2022/08/21 09:38:07;;;;;;;2.23;0.30;;;;;;;;;;4948173;28;20047;-41
2022/08/21 09:40:37;;;;;;;3.10;0.47;;;;;;;;;;4934767;28;20042;-42
2022/08/21 09:43:04;;;;;;;2.85;0.75;;;;;;;;;;4939930;28;20074;-41
2022/08/21 09:45:32;;;;;;;2.47;0.40;;;;;;;;;;4942852;28;20047;-41
2022/08/21 09:48:08;;;;;;;3.45;0.75;;;;;;;;;;4940650;28;20046;-43
2022/08/21 09:50:36;;;;;;;3.53;0.70;;;;;;;;;;4951380;28;20067;-40
2022/08/21 09:53:03;;;;;;;3.28;0.70;;;;;;;;;;4935737;28;20047;-40
2022/08/21 09:58:20;;;;;;;4.32;0.90;;;;;;;;;;4950748;28;20043;-43
2022/08/21 10:00:57;;;;;;;4.60;0.60;;;;;;;;;;4930386;28;20050;-42
2022/08/21 10:03:24;;;;;;;3.00;0.50;;;;;;;;;;4951631;28;20035;-42
2022/08/21 10:05:54;;;;;;;4.80;0.88;;;;;;;;;;4937865;28;20038;-40
2022/08/21 10:08:23;;;;;;;3.65;0.40;;;;;;;;;;4951990;28;20097;-41
2022/08/21 10:10:52;;;;;;;2.90;0.60;;;;;;;;;;4936847;28;20051;-41
2022/08/21 10:13:21;;;;;;;3.17;0.47;;;;;;;;;;4939574;28;20046;-41
2022/08/21 10:15:50;;;;;;;2.27;0.40;;;;;;;;;;4944968;28;20090;-41
2022/08/21 10:18:20;;;;;;;3.13;0.60;;;;;;;;;;4946660;28;20075;-42
2022/08/21 10:20:53;;;;;;;3.83;0.68;;;;;;;;;;4943268;28;20354;-40
2022/08/21 10:23:30;;;;;;;4.30;0.93;;;;;;;;;;4948983;28;20046;-42
2022/08/21 10:25:59;;;;;;;3.15;0.95;;;;;;;;;;4945665;28;20042;-42
2022/08/21 10:28:32;;;;;;;3.03;0.57;;;;;;;;;;4948973;28;20130;-41
2022/08/21 10:31:01;;;;;;;2.60;0.60;;;;;;;;;;4951316;28;20081;-41
2022/08/21 10:33:38;;;;;;;3.25;0.80;;;;;;;;;;4932349;28;20039;-42
2022/08/21 10:36:09;;;;;;;3.00;0.70;;;;;;;;;;4936782;28;20042;-43
2022/08/21 10:38:48;;;;;;;3.20;0.65;;;;;;;;;;4948820;28;20085;-40
2022/08/21 10:41:18;;;;;;;2.87;0.50;;;;;;;;;;4937471;28;20539;-40
2022/08/21 10:43:49;;;;;;;2.60;0.50;;;;;;;;;;4947729;28;20049;-40
2022/08/21 10:46:18;;;;;;;3.58;0.60;;;;;;;;;;4955665;28;20047;-43
2022/08/21 10:48:47;;;;;;;2.22;0.40;;;;;;;;;;4943119;28;20120;-43
2022/08/21 10:51:17;;;;;;;3.55;0.50;;;;;;;;;;4954006;28;20110;-41
2022/08/21 10:53:52;;;;;;;2.83;0.70;;;;;;;;;;4930944;28;20469;-40
2022/08/21 10:56:20;;;;;;;5.93;1.00;;;;;;;;;;4948711;28;20047;-42
2022/08/21 10:58:49;;;;;;;4.28;0.50;;;;;;;;;;4925702;28;20480;-41
2022/08/21 11:01:19;;;;;;;4.85;0.50;;;;;;;;;;4949988;28;20046;-43
2022/08/21 11:03:50;;;;;;;2.65;0.60;;;;;;;;;;4939835;28;20039;-41
2022/08/21 11:06:20;;;;;;;2.77;0.70;;;;;;;;;;4955519;28;20035;-40
2022/08/21 11:08:50;;;;;;;3.10;0.82;;;;;;;;;;4948507;28;20397;-41
2022/08/21 11:11:21;;;;;;;4.07;0.82;;;;;;;;;;4943604;28;20054;-40
2022/08/21 11:13:49;;;;;;;3.08;0.50;;;;;;;;;;4949350;28;20074;-41
2022/08/21 11:16:18;;;;;;;3.77;0.70;;;;;;;;;;4593731;28;9999638;-41
2022/08/21 11:18:47;;;;;;;3.42;1.00;;;;;;;;;;4949171;28;20042;-44
2022/08/21 11:21:25;;;;;;;6.38;1.52;;;;;;;;;;4938101;28;20129;-40
2022/08/21 11:23:55;;;;;;;3.35;0.47;;;;;;;;;;4948842;28;20043;-40
2022/08/21 11:26:25;;;;;;;3.97;0.80;;;;;;;;;;4940997;28;20035;-43
2022/08/21 11:28:55;;;;;;;4.68;0.65;;;;;;;;;;4937316;28;20678;-40
2022/08/21 11:31:28;;;;;;;4.78;0.90;;;;;;;;;;4937861;28;20413;-42
2022/08/21 11:34:01;;;;;;;2.80;0.68;;;;;;;;;;4941580;28;20117;-41
2022/08/21 11:36:31;;;;;;;3.60;1.00;;;;;;;;;;4956919;28;20117;-40
2022/08/21 11:39:01;;;;;;;2.57;0.67;;;;;;;;;;4926072;28;20101;-39
2022/08/21 11:41:30;;;;;;;2.50;0.70;;;;;;;;;;4595280;28;10000365;-42
2022/08/21 11:44:02;;;;;;;4.18;0.80;;;;;;;;;;4944830;28;20479;-40
2022/08/21 11:46:32;;;;;;;3.38;0.85;;;;;;;;;;4946023;28;20038;-41
2022/08/21 11:49:05;;;;;;;4.57;1.40;;;;;;;;;;4940596;28;20518;-42
2022/08/21 11:51:34;;;;;;;2.93;0.77;;;;;;;;;;4932015;28;20062;-41
2022/08/21 11:54:04;;;;;;;3.03;0.63;;;;;;;;;;4944745;28;20489;-42
2022/08/21 11:56:34;;;;;;;2.78;0.70;;;;;;;;;;4935530;28;20047;-42
2022/08/21 11:59:03;;;;;;;3.70;0.60;;;;;;;;;;4932645;28;20058;-41
2022/08/21 12:01:33;;;;;;;3.35;0.60;;;;;;;;;;4946500;28;20042;-40
2022/08/21 12:04:02;;;;;;;2.93;0.77;;;;;;;;;;4944039;28;20065;-41
2022/08/21 12:06:30;;;;;;;5.70;0.73;;;;;;;;;;4585326;28;10000628;-41
2022/08/21 12:08:58;;;;;;;3.42;0.85;;;;;;;;;;4943519;28;20569;-41
2022/08/21 12:11:26;;;;;;;3.72;0.60;;;;;;;;;;4940163;28;20046;-40
2022/08/21 12:13:57;;;;;;;3.65;0.70;;;;;;;;;;4943590;28;20098;-40
2022/08/21 12:16:30;;;;;;;3.45;0.63;;;;;;;;;;4941819;28;20404;-40
2022/08/21 12:19:03;;;;;;;3.40;1.00;;;;;;;;;;4943086;28;20050;-39
2022/08/21 12:21:29;;;;;;;3.88;0.57;;;;;;;;;;4945397;28;20500;-45
2022/08/21 12:24:05;;;;;;;3.60;0.82;;;;;;;;;;4941346;28;20047;-41
2022/08/21 12:26:33;;;;;;;3.45;0.90;;;;;;;;;;4941410;28;20109;-41
2022/08/21 12:29:17;;;;;;;4.45;0.70;;;;;;;;;;4946307;28;20493;-40
2022/08/21 12:31:52;;;;;;;3.27;0.90;;;;;;;;;;4930033;28;20869;-40
2022/08/21 12:34:19;;;;;;;3.50;0.80;;;;;;;;;;4931455;28;20102;-44
2022/08/21 12:36:49;;;;;;;4.20;0.88;;;;;;;;;;4937487;28;20831;-40
2022/08/21 12:39:19;;;;;;;2.53;0.60;;;;;;;;;;4942880;28;20062;-41
2022/08/21 12:41:48;;;;;;;3.90;0.77;;;;;;;;;;4936104;28;20246;-40
2022/08/21 12:44:15;;;;;;;2.80;0.70;;;;;;;;;;4936759;28;20465;-40
2022/08/21 12:46:46;;;;;;;4.28;0.70;;;;;;;;;;4946062;28;20460;-40
2022/08/21 12:49:16;;;;;;;3.42;0.80;;;;;;;;;;4945698;28;20101;-43
2022/08/21 12:51:56;;;;;;;5.22;0.88;;;;;;;;;;4940647;28;20505;-42
2022/08/21 12:54:24;;;;;;;3.90;0.80;;;;;;;;;;4940261;28;20046;-39
2022/08/21 12:56:56;;;;;;;2.60;0.90;;;;;;;;;;4946260;28;20089;-41
2022/08/21 12:59:23;;;;;;;2.90;0.57;;;;;;;;;;4944067;28;20031;-41
2022/08/21 13:01:52;;;;;;;7.60;0.80;;;;;;;;;;4949918;28;20515;-44
2022/08/21 13:04:22;;;;;;;2.60;0.50;;;;;;;;;;4940659;28;20506;-40
2022/08/21 13:06:51;;;;;;;3.97;0.70;;;;;;;;;;4943370;28;20497;-41
2022/08/21 13:09:25;;;;;;;4.50;1.27;;;;;;;;;;4943115;28;20643;-40
2022/08/21 13:11:52;;;;;;;2.65;0.68;;;;;;;;;;4945968;28;20066;-40
2022/08/21 13:14:23;;;;;;;2.78;0.57;;;;;;;;;;4946247;28;20062;-42
2022/08/21 13:16:53;;;;;;;3.03;0.60;;;;;;;;;;4913477;28;20043;-40
2022/08/21 13:19:23;;;;;;;3.22;0.90;;;;;;;;;;4934298;28;20578;-39
2022/08/21 13:21:49;;;;;;;3.80;0.77;;;;;;;;;;4949612;28;20070;-45
2022/08/21 13:24:17;;;;;;;2.90;0.85;;;;;;;;;;4937917;28;20049;-40
2022/08/21 13:26:44;;;;;;;2.58;0.60;;;;;;;;;;4905837;28;20663;-41
2022/08/21 13:29:12;;;;;;;2.63;0.57;;;;;;;;;;4931703;28;20082;-39
2022/08/21 13:31:39;;;;;;;3.92;0.90;;;;;;;;;;4932396;28;20939;-41
2022/08/21 13:34:08;;;;;;;2.40;0.50;;;;;;;;;;4940658;28;20126;-42
2022/08/21 13:36:37;;;;;;;3.75;0.75;;;;;;;;;;4938454;28;20826;-44
2022/08/21 13:39:04;;;;;;;3.88;0.95;;;;;;;;;;4955882;28;20043;-40
2022/08/21 13:41:33;;;;;;;4.10;0.95;;;;;;;;;;4942431;28;22230;-44
2022/08/21 13:44:01;;;;;;;2.85;0.68;;;;;;;;;;4940574;28;20034;-41
2022/08/21 13:46:28;;;;;;;3.13;0.70;;;;;;;;;;4948310;28;20528;-42
2022/08/21 13:48:56;;;;;;;3.03;0.60;;;;;;;;;;4947480;28;20684;-40
2022/08/21 13:51:22;;;;;;;3.35;0.93;;;;;;;;;;4937728;28;20074;-43
2022/08/21 13:53:55;;;;;;;2.92;0.38;;;;;;;;;;4941836;28;20076;-43
2022/08/21 13:56:23;;;;;;;3.22;0.98;;;;;;;;;;4944994;28;20105;-43
2022/08/21 13:58:49;;;;;;;3.57;0.73;;;;;;;;;;4941585;28;20555;-45
2022/08/21 14:01:20;;;;;;;2.95;0.70;;;;;;;;;;4923583;28;20105;-41
2022/08/21 14:03:48;;;;;;;3.53;0.90;;;;;;;;;;4925164;28;20102;-43
2022/08/21 14:06:34;;;;;;;4.07;0.75;;;;;;;;;;4757885;28;10000984;-46
2022/08/21 14:09:08;;;;;;;3.33;0.70;;;;;;;;;;4940837;28;20265;-42
2022/08/21 14:11:35;;;;;;;3.17;0.60;;;;;;;;;;4934017;28;20043;-41
2022/08/21 14:14:04;;;;;;;3.55;0.80;;;;;;;;;;4942098;28;20054;-42
2022/08/21 14:16:42;;;;;;;3.45;0.90;;;;;;;;;;4922284;28;20631;-41
2022/08/21 14:19:10;;;;;;;3.27;0.90;;;;;;;;;;4935925;28;20125;-45
2022/08/21 14:21:38;;;;;;;2.85;0.70;;;;;;;;;;4941181;28;20573;-41
2022/08/21 14:24:07;;;;;;;2.70;0.70;;;;;;;;;;4940520;28;20057;-41
2022/08/21 14:26:35;;;;;;;3.72;1.00;;;;;;;;;;4935995;28;20046;-43
2022/08/21 14:29:02;;;;;;;3.58;1.30;;;;;;;;;;4945822;23;20064;-46
2022/08/21 14:31:30;;;;;;;3.77;0.80;;;;;;;;;;4999433;28;20037;-44
2022/08/21 14:33:57;;;;;;;3.13;0.90;;;;;;;;;;5007585;28;20351;-46
2022/08/21 14:36:24;;;;;;;2.90;0.73;;;;;;;;;;5000400;28;20521;-46
2022/08/21 14:38:50;;;;;;;4.07;0.80;;;;;;;;;;5007938;28;20045;-44
2022/08/21 14:41:21;;;;;;;4.57;1.13;;;;;;;;;;5004058;28;20060;-45
2022/08/21 14:43:47;;;;;;;2.97;0.73;;;;;;;;;;5005133;28;20053;-44
2022/08/21 14:46:19;;;;;;;2.90;0.65;;;;;;;;;;4996215;28;20119;-46
2022/08/21 14:48:46;;;;;;;3.15;0.80;;;;;;;;;;5008889;28;20053;-44
2022/08/21 14:51:13;;;;;;;3.70;0.90;;;;;;;;;;5001626;28;20041;-44